Time;durP1;ratioP1;P1;durP2;ratioP2;P2;SDS_P1;SDS_P2;PMS_P1;PMS_P2;Temp;Humidity;BMP_temperature;BMP_pressure;BME280_temperature;BME280_humidity;BME280_pressure;Samples;Min_cycle;Max_cycle;Signal;HPM_P1;HPM_P2
2021/08/03 00:00:49;;;;;;;16.02;5.18;;;;;;;33.69;35.19;100905.97;144992;605;6002;-86
2021/08/03 00:03:16;;;;;;;21.08;5.75;;;;;;;33.72;35.09;100901.25;144992;626;6002;-84
2021/08/03 00:05:48;;;;;;;17.35;5.75;;;;;;;33.77;35.01;100907.25;144992;584;6002;-83
2021/08/03 00:08:32;;;;;;;20.83;5.65;;;;;;;33.84;34.90;100905.00;144992;642;6002;-85
2021/08/03 00:11:06;;;;;;;19.55;6.22;;;;;;;33.89;34.82;100904.69;144992;567;6004;-84
2021/08/03 00:13:34;;;;;;;14.90;5.50;;;;;;;33.88;34.65;100905.66;144992;558;6012;-84
2021/08/03 00:16:03;;;;;;;14.82;4.85;;;;;;;33.85;34.47;100913.94;144992;602;6004;-84
2021/08/03 00:18:30;;;;;;;17.67;5.20;;;;;;;33.80;34.25;100896.25;144992;563;6004;-82
2021/08/03 00:20:58;;;;;;;14.65;4.90;;;;;;;33.73;34.64;100907.53;144992;615;6004;-85
2021/08/03 00:23:24;;;;;;;16.85;5.45;;;;;;;33.70;34.60;100911.28;144992;614;6004;-83
2021/08/03 00:25:53;;;;;;;17.33;5.05;;;;;;;33.68;34.46;100909.59;144992;583;6004;-84
2021/08/03 00:28:19;;;;;;;15.68;5.05;;;;;;;33.68;34.38;100912.28;144992;603;6004;-83
2021/08/03 00:30:48;;;;;;;19.92;5.00;;;;;;;33.66;34.24;100914.22;144992;577;6004;-84
2021/08/03 00:33:16;;;;;;;17.75;5.68;;;;;;;33.65;34.06;100912.47;144992;599;6004;-84
2021/08/03 00:35:53;;;;;;;20.60;5.75;;;;;;;33.62;34.01;100908.19;144992;564;6004;-83
2021/08/03 00:38:20;;;;;;;17.65;5.10;;;;;;;33.58;34.01;100906.62;144992;590;6004;-88
2021/08/03 00:41:03;;;;;;;17.58;5.05;;;;;;;33.62;33.89;100902.81;144992;643;6004;-84
2021/08/03 00:43:29;;;;;;;18.00;4.93;;;;;;;33.66;33.49;100903.47;144992;618;6004;-84
2021/08/03 00:45:56;;;;;;;18.85;5.05;;;;;;;33.67;33.56;100908.75;144992;607;6004;-84
2021/08/03 00:48:23;;;;;;;15.73;5.00;;;;;;;33.65;33.62;100894.53;144992;626;6004;-83
2021/08/03 00:50:49;;;;;;;18.27;5.20;;;;;;;33.60;31.55;100894.81;144992;594;6004;-84
2021/08/03 00:53:16;;;;;;;20.05;5.43;;;;;;;33.56;32.00;100898.66;144992;575;6004;-84
2021/08/03 00:55:43;;;;;;;17.52;4.80;;;;;;;33.54;33.70;100902.44;144992;585;6004;-83
2021/08/03 00:58:12;;;;;;;20.25;5.07;;;;;;;33.53;33.40;100903.38;144992;574;6005;-84
2021/08/03 01:00:39;;;;;;;21.55;5.20;;;;;;;33.53;33.39;100903.38;144993;631;6013;-84
2021/08/03 01:03:05;;;;;;;20.45;5.18;;;;;;;33.50;33.17;100895.50;144993;681;6002;-84
2021/08/03 01:06:11;;;;;;;20.90;4.87;;;;;;;33.47;30.52;100898.41;144993;584;6002;-83
2021/08/03 01:09:04;;;;;;;22.15;5.22;;;;;;;33.43;33.48;100898.59;144993;573;6004;-83
2021/08/03 01:12:00;;;;;;;16.05;5.37;;;;;;;33.48;33.03;100903.69;144993;609;6004;-85
2021/08/03 01:14:44;;;;;;;18.50;5.05;;;;;;;33.52;32.93;100894.47;144993;603;6002;-86
2021/08/03 01:17:37;;;;;;;24.75;6.53;;;;;;;33.56;32.81;100898.66;144993;571;6002;-83
2021/08/03 01:20:59;;;;;;;24.92;6.55;;;;;;;33.54;32.59;100892.53;144993;618;6002;-84
2021/08/03 01:24:15;;;;;;;15.45;5.43;;;;;;;33.53;32.77;100898.00;144993;594;6000;-84
2021/08/03 01:27:26;;;;;;;20.30;5.78;;;;;;;33.51;32.96;100892.72;144993;594;6002;-84
2021/08/03 01:29:54;;;;;;;23.62;6.25;;;;;;;33.53;32.71;100889.94;144993;571;6000;-84
2021/08/03 01:32:32;;;;;;;20.45;6.65;;;;;;;33.52;32.68;100894.47;144993;571;6002;-85
2021/08/03 01:34:59;;;;;;;24.85;5.80;;;;;;;33.50;32.80;100893.69;144992;577;6002;-83
2021/08/03 01:37:31;;;;;;;21.90;5.85;;;;;;;33.49;32.63;100894.66;144992;653;6002;-85
2021/08/03 01:40:01;;;;;;;17.98;5.95;;;;;;;33.49;32.71;100897.34;144992;579;6002;-84
2021/08/03 01:42:30;;;;;;;17.58;5.50;;;;;;;33.48;32.61;100890.22;144992;569;6002;-84
2021/08/03 01:44:59;;;;;;;19.23;5.82;;;;;;;33.50;32.59;100904.44;144992;580;6002;-84
2021/08/03 01:47:28;;;;;;;19.50;6.30;;;;;;;33.52;32.48;100905.22;144993;594;6002;-86
2021/08/03 01:49:56;;;;;;;27.67;6.43;;;;;;;33.54;32.33;100889.84;144993;582;6002;-85
2021/08/03 01:52:23;;;;;;;28.10;6.05;;;;;;;33.53;32.43;100901.56;144993;581;6002;-85
2021/08/03 01:54:51;;;;;;;19.75;6.10;;;;;;;33.51;32.36;100895.41;144993;571;6002;-85
2021/08/03 01:57:18;;;;;;;21.30;5.85;;;;;;;33.47;31.78;100891.19;144993;587;6002;-84
2021/08/03 01:59:45;;;;;;;25.58;5.90;;;;;;;33.44;32.18;100899.47;144993;598;6002;-84
2021/08/03 02:02:14;;;;;;;19.67;5.55;;;;;;;33.41;32.27;100897.84;144993;612;6002;-84
2021/08/03 02:04:42;;;;;;;23.08;5.75;;;;;;;33.42;32.25;100906.75;144993;582;6003;-84
2021/08/03 02:07:09;;;;;;;23.30;6.12;;;;;;;33.37;31.91;100898.97;144993;607;6002;-83
2021/08/03 02:09:37;;;;;;;25.73;5.65;;;;;;;33.33;32.15;100901.97;144993;621;6002;-84
2021/08/03 02:12:04;;;;;;;25.02;6.47;;;;;;;33.33;31.04;100905.53;144993;735;6002;-84
2021/08/03 02:14:32;;;;;;;30.40;6.07;;;;;;;33.32;32.13;100900.25;144993;609;6002;-84
2021/08/03 02:17:03;;;;;;;22.45;6.15;;;;;;;33.36;32.34;100909.84;144993;577;6002;-83
2021/08/03 02:19:29;;;;;;;18.17;6.32;;;;;;;33.39;32.04;100912.34;144993;574;6002;-85
2021/08/03 02:21:56;;;;;;;19.52;6.37;;;;;;;33.42;32.26;100906.75;144993;564;6002;-85
2021/08/03 02:24:23;;;;;;;23.85;6.57;;;;;;;33.43;32.02;100909.34;144993;586;6002;-84
2021/08/03 02:26:49;;;;;;;38.22;7.18;;;;;;;33.42;31.83;100920.22;144993;590;6002;-83
2021/08/03 02:29:16;;;;;;;18.50;6.85;;;;;;;33.41;32.00;100915.81;144993;636;6002;-83
2021/08/03 02:32:00;;;;;;;26.40;6.60;;;;;;;33.35;31.73;100916.19;144993;620;6002;-83
2021/08/03 02:34:33;;;;;;;27.65;6.85;;;;;;;33.31;31.51;100914.66;144993;582;6002;-84
2021/08/03 02:37:04;;;;;;;18.90;6.53;;;;;;;33.30;31.67;100911.09;144993;589;6002;-85
2021/08/03 02:39:31;;;;;;;18.80;6.40;;;;;;;33.29;31.64;100916.56;144993;593;6002;-84
2021/08/03 02:41:59;;;;;;;24.73;7.30;;;;;;;33.28;31.69;100925.59;144994;676;5002;-85
2021/08/03 02:44:26;;;;;;;23.38;7.37;;;;;;;33.24;31.22;100920.41;144994;564;5002;-84
2021/08/03 02:46:56;;;;;;;25.12;7.35;;;;;;;33.21;31.52;100925.97;144994;565;5002;-84
2021/08/03 02:52:10;;;;;;;23.15;8.45;;;;;;;33.24;31.41;100924.94;144994;564;5004;-84
2021/08/03 02:54:41;;;;;;;34.53;9.10;;;;;;;33.20;29.72;100926.97;144994;614;5004;-83
2021/08/03 02:57:11;;;;;;;26.77;8.55;;;;;;;33.15;28.78;100922.78;144994;566;5005;-85
2021/08/03 02:59:43;;;;;;;33.63;8.95;;;;;;;33.11;31.43;100935.56;144994;577;5004;-84
2021/08/03 03:02:14;;;;;;;29.52;8.48;;;;;;;33.14;31.40;100937.16;144994;580;5004;-84
2021/08/03 03:05:09;;;;;;;29.55;9.02;;;;;;;33.14;31.31;100937.16;144994;585;5005;-84
2021/08/03 03:07:47;;;;;;;37.47;9.70;;;;;;;33.17;31.22;100939.69;144994;599;5002;-84
2021/08/03 03:10:19;;;;;;;28.23;10.25;;;;;;;33.19;31.05;100941.34;144994;589;5002;-84
2021/08/03 03:12:52;;;;;;;33.58;10.75;;;;;;;33.22;30.70;100949.22;144994;607;5002;-85
2021/08/03 03:15:19;;;;;;;44.42;11.82;;;;;;;33.22;30.77;100938.47;144994;644;5002;-83
2021/08/03 03:17:47;;;;;;;33.83;10.93;;;;;;;33.21;30.83;100942.13;144994;576;5002;-84
2021/08/03 03:20:19;;;;;;;34.30;11.00;;;;;;;33.19;30.71;100938.66;144994;590;5002;-86
2021/08/03 03:22:49;;;;;;;35.53;10.85;;;;;;;33.19;30.92;100949.41;144994;566;5002;-86
2021/08/03 03:25:19;;;;;;;34.58;10.88;;;;;;;33.23;30.89;100944.72;144994;604;5002;-84
2021/08/03 03:27:50;;;;;;;36.10;10.63;;;;;;;33.28;30.51;100947.12;144994;583;5002;-85
2021/08/03 03:30:17;;;;;;;37.53;10.80;;;;;;;33.24;28.61;100946.44;144994;575;5002;-84
2021/08/03 03:32:46;;;;;;;32.70;10.82;;;;;;;33.21;30.38;100943.94;144994;655;5002;-84
2021/08/03 03:35:15;;;;;;;35.60;11.30;;;;;;;33.18;30.62;100952.19;144994;569;5002;-83
2021/08/03 03:37:45;;;;;;;27.48;9.68;;;;;;;33.14;30.57;100954.19;144994;580;5002;-84
2021/08/03 03:40:15;;;;;;;33.15;10.38;;;;;;;33.12;30.31;100945.37;144994;589;5002;-84
2021/08/03 03:42:43;;;;;;;34.13;11.25;;;;;;;33.13;30.43;100948.91;144994;577;5002;-84
2021/08/03 03:45:12;;;;;;;34.40;10.10;;;;;;;33.11;30.29;100957.06;144994;585;5002;-85
2021/08/03 03:47:47;;;;;;;34.92;9.93;;;;;;;33.12;30.05;100957.94;144994;605;5002;-85
2021/08/03 03:50:25;;;;;;;34.70;9.82;;;;;;;33.08;30.43;100951.87;144994;588;5002;-85
2021/08/03 03:53:10;;;;;;;29.45;9.40;;;;;;;33.06;30.27;100953.81;144994;616;5002;-84
2021/08/03 03:55:49;;;;;;;32.60;9.07;;;;;;;33.00;30.47;100948.81;144994;604;5002;-84
2021/08/03 03:58:17;;;;;;;35.17;8.73;;;;;;;32.93;30.49;100950.13;144994;585;5002;-83
2021/08/03 04:00:44;;;;;;;30.48;8.20;;;;;;;32.83;30.35;100957.88;144994;591;5002;-84
2021/08/03 04:03:12;;;;;;;29.48;8.10;;;;;;;32.69;30.19;100954.22;144994;573;5002;-82
2021/08/03 04:05:41;;;;;;;29.42;8.20;;;;;;;32.57;30.21;100954.91;144994;564;5002;-84
2021/08/03 04:08:08;;;;;;;25.00;7.82;;;;;;;32.49;30.25;100968.78;144993;574;5002;-84
2021/08/03 04:10:37;;;;;;;34.65;8.27;;;;;;;32.50;30.72;100967.84;144994;587;5002;-84
2021/08/03 04:13:03;;;;;;;23.80;7.53;;;;;;;32.46;30.29;100963.56;144993;666;5002;-84
2021/08/03 04:15:32;;;;;;;25.98;7.87;;;;;;;32.46;30.65;100966.25;144994;569;5002;-85
2021/08/03 04:17:58;;;;;;;35.33;9.02;;;;;;;32.48;30.03;100974.25;144994;595;5002;-84
2021/08/03 04:20:24;;;;;;;26.55;8.10;;;;;;;32.49;30.52;100976.84;144994;599;5002;-84
2021/08/03 04:22:51;;;;;;;33.20;8.27;;;;;;;32.50;30.12;100973.19;144994;621;5002;-85
2021/08/03 04:25:21;;;;;;;32.17;8.63;;;;;;;32.54;30.75;100980.09;144994;576;5002;-86
2021/08/03 04:27:50;;;;;;;29.15;8.07;;;;;;;32.62;30.44;100986.88;144994;585;5002;-85
2021/08/03 04:30:18;;;;;;;25.12;7.95;;;;;;;32.72;30.57;100990.75;144994;654;5002;-84
2021/08/03 04:32:47;;;;;;;28.23;8.18;;;;;;;32.83;30.56;100984.75;144993;564;5002;-84
2021/08/03 04:35:13;;;;;;;27.52;8.15;;;;;;;32.90;30.45;100987.00;144994;569;5002;-85
2021/08/03 04:37:42;;;;;;;25.60;8.10;;;;;;;32.95;30.03;100994.78;144994;596;5002;-85
2021/08/03 04:40:11;;;;;;;31.87;7.45;;;;;;;32.99;30.34;100990.94;144994;687;5002;-84
2021/08/03 04:42:38;;;;;;;28.73;7.53;;;;;;;32.97;30.23;100995.53;144994;587;5002;-84
2021/08/03 04:45:06;;;;;;;31.00;7.97;;;;;;;33.00;30.60;100997.19;144994;691;5002;-86
2021/08/03 04:47:39;;;;;;;24.73;7.87;;;;;;;33.07;30.47;101004.81;144994;573;5002;-85
2021/08/03 04:50:07;;;;;;;34.53;7.70;;;;;;;33.13;30.44;101002.69;144994;629;5002;-84
2021/08/03 04:52:33;;;;;;;28.25;8.25;;;;;;;33.16;30.44;100999.81;144994;563;5002;-84
2021/08/03 04:55:00;;;;;;;32.60;7.57;;;;;;;33.14;30.25;101007.97;144994;573;5002;-83
2021/08/03 04:57:26;;;;;;;32.63;7.43;;;;;;;33.13;30.26;101002.69;144994;655;5002;-85
2021/08/03 04:59:53;;;;;;;29.50;8.15;;;;;;;33.13;30.37;101005.38;144993;565;5002;-84
2021/08/03 05:02:20;;;;;;;28.73;7.80;;;;;;;33.14;30.25;100999.03;144994;606;5002;-85
2021/08/03 05:04:47;;;;;;;26.02;7.65;;;;;;;33.17;30.19;101001.53;144994;606;5002;-84
2021/08/03 05:07:13;;;;;;;30.02;8.35;;;;;;;33.19;30.22;101003.22;144994;669;5002;-85
2021/08/03 05:09:43;;;;;;;32.97;8.40;;;;;;;33.24;30.38;100997.56;144994;601;5002;-84
2021/08/03 05:12:09;;;;;;;26.10;8.25;;;;;;;33.32;30.50;100994.41;144994;592;5002;-85
2021/08/03 05:14:38;;;;;;;26.37;7.80;;;;;;;33.38;30.75;100991.34;144994;576;5002;-84
2021/08/03 05:17:09;;;;;;;28.65;8.55;;;;;;;33.47;30.63;100996.13;144994;566;5002;-83
2021/08/03 05:19:39;;;;;;;26.77;7.93;;;;;;;33.58;30.69;101000.84;144994;599;5002;-87
2021/08/03 05:22:15;;;;;;;25.00;8.80;;;;;;;33.70;30.72;100997.41;144994;572;5002;-83
2021/08/03 05:24:42;;;;;;;29.23;7.87;;;;;;;33.79;30.82;101004.91;144994;589;5002;-85
2021/08/03 05:27:09;;;;;;;28.87;8.18;;;;;;;33.84;30.62;100999.22;144994;577;5002;-84
2021/08/03 05:29:35;;;;;;;26.42;8.32;;;;;;;33.88;30.89;100991.81;144994;589;5002;-84
2021/08/03 05:32:05;;;;;;;28.55;7.90;;;;;;;33.90;30.61;101006.03;144994;599;5002;-83
2021/08/03 05:34:36;;;;;;;34.25;9.05;;;;;;;33.95;30.75;100996.72;144994;585;5002;-87
2021/08/03 05:37:05;;;;;;;33.97;8.80;;;;;;;34.02;30.96;100996.31;144994;709;5002;-84
2021/08/03 05:39:32;;;;;;;35.28;9.82;;;;;;;34.08;30.95;100990.53;144994;571;5002;-84
2021/08/03 05:41:59;;;;;;;38.08;9.48;;;;;;;34.11;30.72;100995.72;144994;578;5002;-83
2021/08/03 05:44:25;;;;;;;24.50;8.15;;;;;;;34.12;31.14;101002.81;144994;723;5002;-84
2021/08/03 05:46:52;;;;;;;28.48;8.73;;;;;;;34.13;30.81;101000.03;144994;579;5002;-85
2021/08/03 05:49:18;;;;;;;25.48;8.90;;;;;;;34.15;31.08;100994.53;144994;607;5002;-84
2021/08/03 05:51:45;;;;;;;26.42;8.07;;;;;;;34.15;31.05;100991.84;144994;610;5002;-83
2021/08/03 05:54:11;;;;;;;26.17;8.50;;;;;;;34.14;30.81;100991.00;144994;611;5002;-84
2021/08/03 05:56:38;;;;;;;31.55;8.60;;;;;;;34.14;30.72;100998.22;144993;589;5002;-83
2021/08/03 05:59:05;;;;;;;27.70;8.25;;;;;;;34.16;30.73;101001.66;144994;590;5002;-84
2021/08/03 06:01:33;;;;;;;30.73;8.27;;;;;;;34.20;30.75;100995.09;144994;575;5002;-83
2021/08/03 06:04:00;;;;;;;29.58;7.75;;;;;;;34.25;30.59;100997.53;144994;608;5002;-89
2021/08/03 06:06:36;;;;;;;33.10;8.30;;;;;;;34.34;30.96;100996.91;144994;565;5002;-85
2021/08/03 06:09:09;;;;;;;30.58;8.20;;;;;;;34.39;31.53;100994.78;144994;565;5002;-84
2021/08/03 06:11:49;;;;;;;26.02;8.02;;;;;;;34.37;31.22;100996.72;144994;622;5002;-84
2021/08/03 06:14:42;;;;;;;32.83;9.00;;;;;;;34.37;32.27;101003.94;144994;699;5002;-83
2021/08/03 06:17:14;;;;;;;30.20;8.68;;;;;;;34.43;31.54;101008.94;144994;580;5004;-84
2021/08/03 06:19:51;;;;;;;28.60;8.57;;;;;;;34.47;31.49;101003.25;144994;609;5004;-85
2021/08/03 06:22:18;;;;;;;36.50;8.60;;;;;;;34.45;31.87;101002.47;144994;568;5004;-84
2021/08/03 06:24:49;;;;;;;25.37;8.40;;;;;;;34.51;31.85;101007.44;144994;574;5004;-82
2021/08/03 06:27:18;;;;;;;29.00;7.90;;;;;;;34.55;31.60;100997.31;144994;601;5004;-84
2021/08/03 06:29:45;;;;;;;30.12;8.32;;;;;;;34.66;31.61;101002.00;144994;637;5004;-85
2021/08/03 06:32:12;;;;;;;24.83;8.30;;;;;;;34.75;31.51;101001.41;144994;618;5004;-84
2021/08/03 06:34:44;;;;;;;30.60;9.48;;;;;;;34.84;31.62;101013.37;144994;674;5004;-83
2021/08/03 06:37:13;;;;;;;29.77;9.73;;;;;;;34.94;31.67;101002.84;144994;579;5004;-83
2021/08/03 06:39:50;;;;;;;35.90;9.75;;;;;;;35.06;31.72;101004.69;144994;569;5004;-84
2021/08/03 06:42:37;;;;;;;32.25;10.32;;;;;;;35.16;32.04;101002.25;144994;605;5004;-84
2021/08/03 06:45:28;;;;;;;36.10;10.60;;;;;;;35.26;32.12;101010.59;144994;563;5002;-85
2021/08/03 06:48:03;;;;;;;33.92;10.98;;;;;;;35.36;31.92;100998.16;144994;582;5002;-84
2021/08/03 06:50:35;;;;;;;33.08;12.82;;;;;;;35.41;32.25;101010.37;144994;575;5002;-83
2021/08/03 06:53:06;;;;;;;31.83;10.98;;;;;;;35.42;32.82;101008.53;144994;563;5002;-84
2021/08/03 06:55:34;;;;;;;30.90;9.82;;;;;;;35.38;31.92;101002.47;144994;682;5002;-85
2021/08/03 06:58:05;;;;;;;32.45;9.50;;;;;;;35.42;32.17;101003.97;144994;613;5002;-83
2021/08/03 07:00:40;;;;;;;31.35;8.73;;;;;;;35.31;32.20;101009.28;144994;674;5002;-84
2021/08/03 07:03:10;;;;;;;36.45;9.27;;;;;;;35.04;33.25;101004.78;144994;599;5002;-84
2021/08/03 07:05:43;;;;;;;27.10;8.25;;;;;;;34.92;33.20;101002.97;144994;564;5002;-83
2021/08/03 07:08:11;;;;;;;21.95;8.43;;;;;;;34.92;33.95;101002.06;144994;569;5002;-83
2021/08/03 07:10:39;;;;;;;24.05;7.72;;;;;;;35.00;33.01;101006.00;144994;651;5003;-85
2021/08/03 07:13:06;;;;;;;30.23;7.97;;;;;;;35.09;33.58;101003.63;144994;653;4566;-85
2021/08/03 07:15:32;;;;;;;22.73;7.55;;;;;;;35.01;34.85;101012.25;144994;573;4567;-84
2021/08/03 07:18:00;;;;;;;28.55;7.78;;;;;;;34.88;34.75;101007.69;144994;651;4572;-84
2021/08/03 07:20:27;;;;;;;26.70;7.68;;;;;;;34.75;35.12;101005.94;144992;626;6002;-83
2021/08/03 07:22:56;;;;;;;24.87;7.60;;;;;;;34.66;35.02;101002.84;144992;578;6002;-84
2021/08/03 07:25:23;;;;;;;23.45;7.28;;;;;;;34.67;35.21;101001.88;144992;565;6002;-83
2021/08/03 07:27:51;;;;;;;24.63;7.37;;;;;;;34.78;34.80;101006.59;144992;601;6002;-84
2021/08/03 07:30:17;;;;;;;22.83;7.47;;;;;;;34.94;35.34;101002.84;144992;617;6002;-84
2021/08/03 07:32:43;;;;;;;25.58;7.53;;;;;;;34.91;35.04;100998.53;144992;570;6002;-84
2021/08/03 07:35:10;;;;;;;23.33;7.10;;;;;;;35.03;35.88;101005.78;144992;584;6002;-84
2021/08/03 07:37:37;;;;;;;19.12;7.03;;;;;;;35.13;36.85;100997.06;144992;617;6002;-84
2021/08/03 07:40:06;;;;;;;22.02;6.82;;;;;;;35.13;35.89;100988.97;144992;627;6002;-82
2021/08/03 07:42:33;;;;;;;26.00;7.60;;;;;;;35.10;37.10;101000.81;144992;607;6002;-85
2021/08/03 07:44:59;;;;;;;20.25;6.80;;;;;;;35.13;37.55;100997.06;144992;587;6002;-84
2021/08/03 07:47:26;;;;;;;21.27;6.80;;;;;;;35.07;40.61;101003.72;144992;570;6002;-83
2021/08/03 07:49:53;;;;;;;21.35;6.68;;;;;;;34.98;39.92;101007.06;144992;604;6002;-86
2021/08/03 07:52:20;;;;;;;21.67;7.35;;;;;;;35.17;38.52;101003.94;144992;590;6002;-87
2021/08/03 07:54:47;;;;;;;20.77;6.47;;;;;;;35.13;37.84;101007.84;144992;576;6002;-84
2021/08/03 07:57:14;;;;;;;20.75;6.75;;;;;;;35.17;38.46;100998.56;144992;581;6002;-86
2021/08/03 07:59:40;;;;;;;21.67;7.25;;;;;;;35.09;37.96;100998.22;144992;565;6002;-84
2021/08/03 08:02:07;;;;;;;21.83;7.03;;;;;;;35.18;38.19;101003.84;144992;639;6002;-84
2021/08/03 08:04:34;;;;;;;21.77;7.32;;;;;;;35.14;39.93;101012.25;144992;617;6002;-86
2021/08/03 08:07:02;;;;;;;24.30;7.37;;;;;;;35.11;39.15;101010.66;144992;577;6002;-82
2021/08/03 08:09:29;;;;;;;19.37;6.68;;;;;;;34.95;40.03;101002.75;144992;651;6002;-90
2021/08/03 08:11:56;;;;;;;21.35;6.78;;;;;;;35.01;39.29;101020.31;144992;581;6002;-85
2021/08/03 08:14:23;;;;;;;21.40;6.50;;;;;;;34.88;38.59;101004.13;144992;646;6002;-84
2021/08/03 08:16:50;;;;;;;22.20;6.70;;;;;;;34.65;43.02;101006.53;144992;612;6002;-83
2021/08/03 08:19:17;;;;;;;23.02;6.35;;;;;;;34.81;42.13;101013.63;144991;644;6002;-84
2021/08/03 08:21:44;;;;;;;21.83;6.60;;;;;;;34.95;41.00;101010.84;144992;630;6002;-84
2021/08/03 08:24:11;;;;;;;20.55;7.15;;;;;;;34.79;42.23;101018.22;144992;621;6002;-84
2021/08/03 08:26:38;;;;;;;14.85;6.47;;;;;;;34.67;42.04;101009.13;144992;666;6002;-84
2021/08/03 08:29:08;;;;;;;26.08;7.00;;;;;;;34.62;42.61;101009.44;144992;619;6002;-82
2021/08/03 08:31:34;;;;;;;21.73;6.55;;;;;;;34.64;42.50;101009.31;144992;582;6002;-83
2021/08/03 08:34:01;;;;;;;19.40;6.78;;;;;;;34.73;44.03;101010.53;144992;572;6002;-84
2021/08/03 08:36:27;;;;;;;25.50;6.68;;;;;;;34.87;41.88;101015.88;144992;566;6002;-82
2021/08/03 08:38:54;;;;;;;22.00;6.80;;;;;;;35.00;40.92;101015.88;144992;615;6002;-83
2021/08/03 08:41:21;;;;;;;21.30;6.75;;;;;;;35.00;41.06;101011.38;144992;598;6002;-83
2021/08/03 08:43:48;;;;;;;18.58;7.18;;;;;;;35.08;41.16;101015.38;144992;629;6002;-82
2021/08/03 08:46:14;;;;;;;17.05;6.18;;;;;;;35.08;40.47;101004.56;144992;565;6002;-84
2021/08/03 08:48:43;;;;;;;23.85;6.47;;;;;;;35.12;39.86;101006.97;144990;652;6002;-82
2021/08/03 08:51:10;;;;;;;24.65;6.85;;;;;;;35.26;37.66;101005.19;144992;581;6002;-84
2021/08/03 08:53:36;;;;;;;21.83;6.45;;;;;;;35.16;37.42;101013.03;144992;589;6002;-83
2021/08/03 08:56:03;;;;;;;19.87;5.87;;;;;;;35.14;37.86;101013.13;144992;572;6002;-83
2021/08/03 08:58:34;;;;;;;19.27;6.43;;;;;;;35.12;39.50;101009.66;144992;627;6002;-85
2021/08/03 09:01:02;;;;;;;23.90;6.75;;;;;;;35.18;39.62;101008.38;144992;607;6003;-83
2021/08/03 09:03:29;;;;;;;18.58;6.37;;;;;;;35.38;38.47;100998.91;144992;565;6002;-85
2021/08/03 09:06:01;;;;;;;20.67;6.50;;;;;;;35.34;37.43;101003.66;144992;604;6002;-85
2021/08/03 09:08:39;;;;;;;19.90;6.32;;;;;;;35.30;37.66;101002.16;144991;592;6002;-87
2021/08/03 09:11:13;;;;;;;18.42;6.22;;;;;;;35.16;38.63;100996.84;144991;644;6002;-84
2021/08/03 09:14:01;;;;;;;17.02;6.57;;;;;;;35.18;40.62;100997.59;144992;616;6002;-83
2021/08/03 09:16:48;;;;;;;23.25;6.72;;;;;;;35.18;37.25;100984.97;144992;593;6002;-83
2021/08/03 09:19:52;;;;;;;20.05;7.57;;;;;;;35.46;38.32;100991.16;144992;618;6002;-85
2021/08/03 09:22:24;;;;;;;16.40;6.43;;;;;;;35.63;38.55;100994.47;144992;622;6004;-84
2021/08/03 09:25:13;;;;;;;19.37;6.65;;;;;;;35.70;39.07;100984.94;144992;602;6006;-84
2021/08/03 09:27:48;;;;;;;20.88;6.80;;;;;;;35.83;38.76;100980.44;144992;638;6004;-84
2021/08/03 09:30:40;;;;;;;24.87;6.28;;;;;;;35.95;36.69;100978.66;144992;664;6004;-84
2021/08/03 09:33:07;;;;;;;16.12;5.95;;;;;;;35.97;35.73;100974.03;144992;579;6002;-83
2021/08/03 09:35:34;;;;;;;21.58;6.07;;;;;;;35.90;37.23;100978.97;144992;575;6002;-84
2021/08/03 09:38:02;;;;;;;17.17;6.00;;;;;;;35.88;37.17;100975.53;144992;684;6002;-82
2021/08/03 09:40:34;;;;;;;22.05;6.47;;;;;;;36.07;38.29;100983.16;144992;585;6002;-82
2021/08/03 09:43:19;;;;;;;20.10;7.70;;;;;;;36.00;38.75;100983.72;144992;675;6002;-85
2021/08/03 09:46:06;;;;;;;19.27;6.32;;;;;;;36.13;39.92;100982.69;144992;571;6002;-86
2021/08/03 09:48:49;;;;;;;22.17;6.50;;;;;;;36.32;38.76;100975.97;144992;606;6004;-85
2021/08/03 09:51:35;;;;;;;20.65;6.72;;;;;;;36.32;39.15;100967.88;144992;586;6004;-84
2021/08/03 09:54:29;;;;;;;19.52;6.40;;;;;;;36.42;38.11;100968.03;144992;670;6004;-84
2021/08/03 09:56:57;;;;;;;17.77;6.22;;;;;;;36.39;37.48;100960.16;144992;600;6004;-84
2021/08/03 09:59:35;;;;;;;20.73;6.47;;;;;;;36.53;37.56;100959.06;144992;596;6004;-84
2021/08/03 10:02:03;;;;;;;25.20;5.95;;;;;;;36.76;35.87;100960.91;144992;619;6004;-83
2021/08/03 10:04:34;;;;;;;18.37;5.65;;;;;;;36.85;33.69;100952.09;144992;647;6004;-84
2021/08/03 10:07:01;;;;;;;17.62;6.70;;;;;;;36.67;32.69;100951.66;144992;566;6004;-83
2021/08/03 10:09:29;;;;;;;17.95;6.40;;;;;;;36.60;32.72;100938.72;144992;574;6004;-83
2021/08/03 10:11:56;;;;;;;18.27;5.70;;;;;;;36.67;32.27;100940.84;144992;567;6004;-84
2021/08/03 10:14:22;;;;;;;20.45;5.82;;;;;;;36.82;31.19;100936.09;144992;604;6004;-84
2021/08/03 10:16:50;;;;;;;15.52;5.90;;;;;;;36.79;31.96;100932.78;144992;583;6004;-84
2021/08/03 10:19:22;;;;;;;23.45;5.47;;;;;;;36.84;31.70;100935.97;144992;564;6004;-84
2021/08/03 10:22:30;;;;;;;18.37;5.62;;;;;;;36.78;32.72;100931.03;144992;585;6004;-85
2021/08/03 10:25:11;;;;;;;20.12;5.70;;;;;;;36.86;33.62;100925.91;144992;592;6002;-84
2021/08/03 10:28:22;;;;;;;20.50;6.10;;;;;;;36.91;34.11;100925.53;144992;569;6002;-83
2021/08/03 10:30:49;;;;;;;20.60;6.12;;;;;;;36.94;35.33;100919.88;144991;602;6000;-84
2021/08/03 10:33:42;;;;;;;19.10;6.75;;;;;;;36.84;37.21;100920.63;144992;572;6002;-84
2021/08/03 10:36:29;;;;;;;20.33;5.93;;;;;;;36.93;36.09;100921.72;144992;570;6004;-84
2021/08/03 10:39:09;;;;;;;19.25;5.75;;;;;;;36.85;36.28;100919.63;144992;616;6002;-84
2021/08/03 10:42:19;;;;;;;18.37;5.37;;;;;;;36.99;34.67;100918.56;144992;580;6002;-84
2021/08/03 10:45:03;;;;;;;20.73;5.72;;;;;;;37.04;34.51;100910.91;144992;606;6002;-82
2021/08/03 10:47:47;;;;;;;15.27;5.07;;;;;;;37.02;33.71;100906.62;144992;634;6002;-83
2021/08/03 10:50:29;;;;;;;19.48;5.43;;;;;;;37.10;32.15;100898.75;144992;563;6004;-85
2021/08/03 10:52:57;;;;;;;17.05;5.32;;;;;;;37.16;31.04;100898.28;144992;607;6004;-83
2021/08/03 10:55:42;;;;;;;17.62;5.80;;;;;;;37.29;32.35;100897.31;144992;578;6018;-85
2021/08/03 10:58:28;;;;;;;18.30;5.72;;;;;;;37.38;32.31;100900.12;144992;619;6004;-85
2021/08/03 11:01:03;;;;;;;14.10;4.90;;;;;;;37.41;32.34;100895.47;144992;564;6002;-83
2021/08/03 11:03:49;;;;;;;25.75;6.53;;;;;;;37.54;32.00;100894.31;144992;577;6002;-84
2021/08/03 11:06:37;;;;;;;17.62;5.70;;;;;;;37.60;32.78;100894.81;144992;616;6004;-83
2021/08/03 11:09:32;;;;;;;17.87;4.95;;;;;;;37.57;32.34;100894.06;144992;564;6002;-83
2021/08/03 11:12:36;;;;;;;18.37;5.25;;;;;;;37.56;32.97;100896.91;144992;623;6004;-84
2021/08/03 11:15:41;;;;;;;25.42;5.05;;;;;;;37.61;32.05;100885.69;144992;637;6003;-83
2021/08/03 11:18:12;;;;;;;14.70;4.77;;;;;;;37.63;31.63;100883.75;144992;615;6004;-83
2021/08/03 11:21:00;;;;;;;19.10;5.47;;;;;;;37.53;32.31;100879.09;144992;602;6004;-84
2021/08/03 11:23:54;;;;;;;16.73;5.65;;;;;;;37.59;32.48;100872.28;144992;624;6002;-83
2021/08/03 11:26:21;;;;;;;15.77;5.07;;;;;;;37.55;31.72;100868.13;144992;620;6004;-83
2021/08/03 11:29:08;;;;;;;15.32;5.22;;;;;;;37.64;31.56;100872.78;144992;630;6004;-82
2021/08/03 11:31:51;;;;;;;15.95;5.47;;;;;;;37.68;31.00;100871.56;144991;586;6000;-83
2021/08/03 11:34:20;;;;;;;22.02;4.85;;;;;;;37.80;29.91;100863.41;144992;640;6002;-84
2021/08/03 11:37:17;;;;;;;18.08;4.68;;;;;;;37.93;26.90;100847.84;144991;594;6002;-83
2021/08/03 11:39:52;;;;;;;13.23;4.05;;;;;;;38.01;26.94;100847.22;144992;694;6004;-84
2021/08/03 11:42:36;;;;;;;13.35;3.97;;;;;;;38.23;26.20;100847.13;144992;598;6004;-82
2021/08/03 11:45:27;;;;;;;13.43;3.92;;;;;;;38.29;25.98;100848.44;144992;567;6004;-83
2021/08/03 11:47:59;;;;;;;41.58;23.55;;;;;;;38.36;25.17;100838.81;144992;752;6002;-83
2021/08/03 11:50:39;;;;;;;15.40;4.82;;;;;;;38.53;23.85;100834.63;144992;596;6002;-85
2021/08/03 11:53:18;;;;;;;18.33;4.47;;;;;;;38.76;23.09;100838.06;144992;624;6002;-83